Brunswick Golden Isles Airport
KBQK : now visible

Airfield :











YOU CAN JOIN US ON...

 
LOGIN :

Register | Disclaimer

   EN    FR    IT 

 









Legend :    VFR   Marginal VFR   IFR   Intensive IFR   Very Intensive IFR
Visi :
Ceiling :
>= 8 km
>= 3000ft
5 to 8 km
1000 to 3000 ft
1500m to 5 km
500 to 1000 ft
800 to 1500m
200 to 500 ft
< 800m
< 200 ft
Symbols :   Thunderstorms  Fog  Heavy snow  Heavy precipitations  Wind > 20 kt






- Airport Elevation : 26 ft
- IATA code : BQK


KBQK - Brunswick Golden Isles

CURRENT METAR :
  • 190535Z AUTO 00000KT 10SM CLR 23/23 A3006 RMK AO2 T02300227

EXPIRED METARs :
  • 190515Z AUTO 00000KT 10SM CLR 23/23 A3007 RMK AO2 T02310228
  • 190455Z AUTO 00000KT 10SM CLR 23/23 A3007 RMK AO2 T02320229
  • 190435Z AUTO 00000KT 10SM CLR 23/23 A3007 RMK AO2 T02340229
  • 190415Z AUTO 00000KT 10SM CLR 23/23 A3007 RMK AO2 T02340229
  • 190355Z AUTO 22003KT 10SM CLR 24/23 A3007 RMK AO2 T02410233
  • 190335Z AUTO 26004KT 10SM CLR 24/23 A3007 RMK AO2 T02400234
  • 190315Z AUTO 22003KT 10SM CLR 25/24 A3006 RMK AO2 T02470236
  • 190255Z AUTO 21005KT 10SM CLR 24/24 A3006 RMK AO2 T02440237
  • 190235Z AUTO 22005KT 10SM CLR 24/24 A3005 RMK AO2 T02450237
  • 190215Z AUTO 24004KT 10SM CLR 24/24 A3005 RMK AO2 T02430237
  • 190155Z AUTO 23004KT 10SM CLR 25/24 A3004 RMK AO2 T02470238
  • 190135Z AUTO 22005KT 10SM CLR 25/24 A3004 RMK AO2 T02480238
  • 190115Z AUTO 18004KT 10SM CLR 25/24 A3004 RMK AO2 T02490238
  • 190055Z AUTO 18006KT 10SM CLR 25/24 A3004 RMK AO2 T02490237

TAF N/A
KZJX FIR / North America



MET'MAP, your aeronautical weather chart ! - Copyright ORBIFLY December 2007 - Disclaimer

ORBIFLY MET'MAP TEAM :

Programming & Development : Alexandra Zaïnal
Original concept : Baudouin d'Aumeries
Technical & hardware support : Manuel Goepfert
Assistance : Marc-Olivier Méhu




SOURCES & CREDITS :

   NOAA       Earth
Advisory